createdAt,value
2022-11-02T00:01:43.011Z,98.60
2022-11-02T00:04:28.664Z,98.90
2022-11-02T00:07:14.071Z,98.80
2022-11-02T00:09:59.746Z,98.80
2022-11-02T00:12:45.810Z,99.10
2022-11-02T00:15:34.599Z,99.20
2022-11-02T00:18:20.139Z,98.70
2022-11-02T00:21:05.836Z,98.70
2022-11-02T00:23:57.369Z,98.80
2022-11-02T00:26:42.757Z,98.60
2022-11-02T00:29:33.452Z,98.30
2022-11-02T00:32:20.220Z,97.40
2022-11-02T00:35:06.359Z,96.80
2022-11-02T00:37:51.772Z,96.80
2022-11-02T00:40:37.316Z,96.00
2022-11-02T00:43:22.676Z,96.20
2022-11-02T00:46:08.344Z,95.90
2022-11-02T00:48:53.931Z,96.10
2022-11-02T00:51:39.863Z,96.00
2022-11-02T00:54:28.659Z,96.00
2022-11-02T00:57:14.698Z,95.90
2022-11-02T01:00:00.980Z,95.80
2022-11-02T01:02:46.463Z,95.80
2022-11-02T01:05:32.170Z,95.90
2022-11-02T01:08:17.734Z,95.70
2022-11-02T01:11:17.928Z,95.70
2022-11-02T01:14:03.324Z,95.80
2022-11-02T01:16:49.159Z,95.70
2022-11-02T01:19:35.358Z,95.60
2022-11-02T01:22:23.542Z,95.50
2022-11-02T01:25:09.328Z,95.30
2022-11-02T01:27:54.832Z,95.20
2022-11-02T01:30:40.514Z,95.10
2022-11-02T01:33:29.155Z,95.10
2022-11-02T01:36:16.649Z,94.80
2022-11-02T01:39:02.254Z,94.80
2022-11-02T01:41:52.714Z,94.90
2022-11-02T01:44:40.090Z,95.10
2022-11-02T01:47:39.225Z,95.00
2022-11-02T01:50:27.777Z,94.70
2022-11-02T01:53:16.275Z,94.80
2022-11-02T01:56:05.718Z,94.80
2022-11-02T01:59:04.115Z,94.50
2022-11-02T02:01:49.892Z,94.30
2022-11-02T02:04:39.054Z,94.00
2022-11-02T02:07:26.247Z,94.00
2022-11-02T02:10:12.007Z,94.10
2022-11-02T02:12:57.737Z,94.20
2022-11-02T02:15:55.448Z,94.00
2022-11-02T02:19:30.771Z,93.90
2022-11-02T02:22:48.331Z,93.90
2022-11-02T02:26:03.183Z,93.80
2022-11-02T02:28:59.842Z,93.90
2022-11-02T02:31:56.386Z,93.80
2022-11-02T02:35:06.139Z,93.70
2022-11-02T02:38:03.439Z,93.80
2022-11-02T02:41:03.882Z,93.60
2022-11-02T02:43:51.823Z,93.30
2022-11-02T02:46:44.079Z,93.10
2022-11-02T02:49:40.667Z,92.90
2022-11-02T02:52:32.854Z,92.80
2022-11-02T02:55:24.352Z,92.50
2022-11-02T02:58:16.534Z,91.80
2022-11-02T03:01:05.981Z,92.00
2022-11-02T03:03:55.641Z,92.30
2022-11-02T03:06:50.055Z,92.40
2022-11-02T03:09:47.357Z,92.70
2022-11-02T03:12:47.815Z,92.70
2022-11-02T03:15:45.006Z,93.00
2022-11-02T03:18:42.594Z,93.20
2022-11-02T03:21:41.866Z,92.70
2022-11-02T03:24:37.657Z,93.50
2022-11-02T03:27:54.659Z,93.90
2022-11-02T03:30:45.873Z,94.00
2022-11-02T03:33:38.368Z,93.90
2022-11-02T03:36:35.829Z,93.90
2022-11-02T03:39:30.117Z,93.70
2022-11-02T03:42:23.642Z,93.70
2022-11-02T03:45:15.978Z,93.40
2022-11-02T03:48:16.924Z,93.10
2022-11-02T03:51:06.964Z,92.70
2022-11-02T03:54:10.923Z,92.80
2022-11-02T03:59:49.626Z,93.30
2022-11-02T04:02:37.840Z,93.70
2022-11-02T04:05:30.958Z,93.60
2022-11-02T04:08:39.550Z,93.80
2022-11-02T04:11:46.865Z,93.80
2022-11-02T04:14:39.598Z,93.70
2022-11-02T04:17:47.810Z,93.80
2022-11-02T04:20:36.271Z,93.80
2022-11-02T04:23:40.659Z,93.70
2022-11-02T04:26:26.094Z,93.40
2022-11-02T04:29:11.634Z,93.40
2022-11-02T04:31:58.425Z,93.30
2022-11-02T04:34:43.859Z,93.20
2022-11-02T04:37:47.960Z,93.00
2022-11-02T04:40:33.896Z,93.50
2022-11-02T04:43:21.386Z,93.90
2022-11-02T04:46:06.960Z,94.20
2022-11-02T04:48:53.236Z,94.50
2022-11-02T04:51:45.733Z,94.60
2022-11-02T04:54:33.460Z,94.70
2022-11-02T04:57:21.079Z,94.80
2022-11-02T05:00:08.886Z,95.10
2022-11-02T05:02:54.648Z,95.10
2022-11-02T05:05:43.689Z,95.00
2022-11-02T05:08:31.867Z,95.00
2022-11-02T05:11:17.790Z,94.80
2022-11-02T05:14:03.633Z,94.80
2022-11-02T05:16:48.977Z,94.60
2022-11-02T05:19:37.360Z,94.60
2022-11-02T05:22:24.011Z,94.50
2022-11-02T05:25:10.215Z,94.30
2022-11-02T05:27:57.519Z,94.10
2022-11-02T05:30:43.094Z,94.20
2022-11-02T05:33:31.119Z,93.70
2022-11-02T05:36:21.138Z,93.30
2022-11-02T05:39:11.741Z,92.80
2022-11-02T05:41:57.460Z,92.50
2022-11-02T05:44:42.924Z,92.20
2022-11-02T05:47:28.582Z,91.90
2022-11-02T05:50:13.798Z,91.70
2022-11-02T05:52:59.671Z,91.60
2022-11-02T05:55:45.079Z,91.50
2022-11-02T05:58:30.947Z,91.10
2022-11-02T06:01:17.255Z,90.80
2022-11-02T06:04:02.327Z,90.60
2022-11-02T06:06:47.797Z,90.50
2022-11-02T06:09:33.338Z,90.30
2022-11-02T06:12:18.758Z,90.20
2022-11-02T06:15:05.144Z,90.20
2022-11-02T06:17:51.792Z,90.00
2022-11-02T06:20:37.208Z,90.00
2022-11-02T06:23:22.879Z,90.00
2022-11-02T06:26:09.419Z,89.70
2022-11-02T06:28:57.767Z,89.50
2022-11-02T06:31:45.958Z,88.70
2022-11-02T06:34:31.287Z,88.10
2022-11-02T06:37:19.235Z,87.90
2022-11-02T06:40:05.048Z,87.90
2022-11-02T06:43:15.301Z,87.30
2022-11-02T06:46:02.780Z,87.00
2022-11-02T06:48:48.443Z,86.50
2022-11-02T06:51:35.241Z,86.30
2022-11-02T06:54:20.729Z,86.10
2022-11-02T06:57:06.089Z,85.60
2022-11-02T06:59:54.112Z,85.10
2022-11-02T07:02:40.367Z,85.00
2022-11-02T07:05:26.190Z,84.60
2022-11-02T07:08:11.537Z,84.00
2022-11-02T07:10:57.018Z,83.40
2022-11-02T07:13:42.804Z,83.20
2022-11-02T07:16:37.463Z,82.80
2022-11-02T07:19:22.909Z,82.70
2022-11-02T07:22:08.407Z,82.60
2022-11-02T07:24:53.981Z,82.50
2022-11-02T07:27:42.213Z,82.50
2022-11-02T07:30:29.226Z,82.50
2022-11-02T07:33:14.485Z,82.50
2022-11-02T07:36:03.787Z,82.40
2022-11-02T07:38:49.786Z,82.50
2022-11-02T07:41:35.988Z,82.80
2022-11-02T07:44:21.276Z,82.70
2022-11-02T07:47:12.838Z,82.90
2022-11-02T07:49:59.765Z,83.10
2022-11-02T07:52:56.787Z,82.90
2022-11-02T07:55:47.926Z,82.50
2022-11-02T07:58:33.803Z,82.60
2022-11-02T08:01:19.585Z,82.70
2022-11-02T08:04:06.179Z,82.60
2022-11-02T08:06:53.240Z,82.50
2022-11-02T08:09:38.933Z,82.20
2022-11-02T08:12:24.889Z,82.60
2022-11-02T08:15:10.446Z,82.40
2022-11-02T08:18:17.555Z,82.00
2022-11-02T08:21:04.244Z,81.30
2022-11-02T08:23:51.769Z,81.00
2022-11-02T08:26:42.399Z,80.90
2022-11-02T08:29:30.515Z,80.70
2022-11-02T08:32:16.014Z,80.30
2022-11-02T08:35:01.146Z,79.40
2022-11-02T08:37:53.806Z,79.20
2022-11-02T08:40:41.087Z,78.20
2022-11-02T08:43:26.595Z,78.00
2022-11-02T08:46:16.509Z,77.90
2022-11-02T08:49:02.532Z,77.70
2022-11-02T08:51:48.189Z,77.30
2022-11-02T08:54:34.296Z,77.10
2022-11-02T08:57:19.958Z,76.60
2022-11-02T09:00:06.373Z,76.10
2022-11-02T09:02:59.570Z,76.30
2022-11-02T09:05:46.579Z,75.20
2022-11-02T09:08:33.345Z,75.20
2022-11-02T09:11:18.836Z,74.70
2022-11-02T09:14:04.157Z,74.70
2022-11-02T09:16:49.586Z,74.20
2022-11-02T09:19:35.021Z,74.00
2022-11-02T09:22:20.458Z,73.70
2022-11-02T09:25:06.674Z,73.50
2022-11-02T09:27:56.417Z,73.20
2022-11-02T09:30:41.856Z,73.00
2022-11-02T09:33:36.422Z,72.30
2022-11-02T09:36:22.311Z,72.70
2022-11-02T09:39:08.274Z,72.00
2022-11-02T09:42:11.555Z,70.90
2022-11-02T09:45:04.590Z,70.60
2022-11-02T09:48:27.868Z,71.00
2022-11-02T09:51:36.875Z,71.10
2022-11-02T09:54:34.157Z,71.10
2022-11-02T09:57:30.691Z,70.20
2022-11-02T10:00:21.109Z,70.00
2022-11-02T10:03:25.095Z,70.00
2022-11-02T10:06:18.616Z,70.30
2022-11-02T10:09:35.748Z,70.40
2022-11-02T10:12:48.598Z,70.20
2022-11-02T10:15:39.331Z,70.50
2022-11-02T10:18:29.959Z,71.00
2022-11-02T10:21:26.067Z,71.50
2022-11-02T10:24:18.509Z,72.10
2022-11-02T10:27:45.230Z,72.70
2022-11-02T10:30:32.079Z,72.50
2022-11-02T10:33:26.248Z,71.20
2022-11-02T10:36:37.302Z,70.50
2022-11-02T10:39:29.747Z,69.30
2022-11-02T10:42:46.725Z,70.30
2022-11-02T10:46:07.399Z,70.50
2022-11-02T10:49:02.188Z,70.60
2022-11-02T10:51:47.791Z,70.70
2022-11-02T10:54:34.701Z,71.50
2022-11-02T10:57:24.039Z,68.90
2022-11-02T11:00:23.160Z,68.10
2022-11-02T11:03:12.095Z,68.70
2022-11-02T11:06:03.616Z,68.20
2022-11-02T11:08:51.949Z,67.80
2022-11-02T11:11:38.902Z,67.90
2022-11-02T11:20:43.068Z,64.60
2022-11-02T11:23:32.027Z,58.90
2022-11-02T11:26:30.999Z,58.00
2022-11-02T11:29:23.182Z,57.70
2022-11-02T11:32:29.857Z,57.70
2022-11-02T11:35:19.024Z,56.50
2022-11-02T11:38:06.938Z,55.60
2022-11-02T11:40:59.649Z,55.30
2022-11-02T11:43:46.585Z,54.70
2022-11-02T11:46:51.364Z,54.20
2022-11-02T11:53:22.411Z,52.10
2022-11-02T11:56:28.745Z,50.10
2022-11-02T11:59:43.993Z,49.50
2022-11-02T12:02:32.150Z,47.40
2022-11-02T12:05:20.757Z,48.10
2022-11-02T12:08:31.259Z,49.70
2022-11-02T12:11:38.748Z,50.90
2022-11-02T12:14:52.680Z,50.20
2022-11-02T12:17:50.424Z,48.90
2022-11-02T12:21:05.151Z,48.20
2022-11-02T12:24:16.002Z,44.40
2022-11-02T12:27:23.068Z,43.70
2022-11-02T12:30:19.835Z,46.00
2022-11-02T12:33:34.687Z,47.40
2022-11-02T12:36:56.783Z,46.80
2022-11-02T12:40:04.787Z,47.10
2022-11-02T12:43:04.924Z,47.50
2022-11-02T12:46:13.583Z,47.50
2022-11-02T12:49:36.758Z,47.50
2022-11-02T12:52:44.209Z,48.90
2022-11-02T12:55:38.751Z,51.10
2022-11-02T12:58:28.832Z,52.60
2022-11-02T13:01:34.166Z,49.20
2022-11-02T13:04:30.305Z,47.70
2022-11-02T13:07:27.019Z,45.00
2022-11-02T13:10:18.713Z,43.00
2022-11-02T13:13:05.168Z,44.40
2022-11-02T13:15:54.743Z,44.60
2022-11-02T13:18:53.278Z,45.60
2022-11-02T13:21:44.451Z,47.10
2022-11-02T13:24:45.683Z,47.20
2022-11-02T13:27:39.210Z,48.90
2022-11-02T13:30:25.959Z,50.40
2022-11-02T13:33:44.783Z,51.10
2022-11-02T13:36:30.858Z,51.20
2022-11-02T13:39:21.806Z,52.30
2022-11-02T13:42:38.203Z,52.10
2022-11-02T13:45:42.728Z,52.60
2022-11-02T13:48:55.870Z,53.60
2022-11-02T13:51:48.922Z,51.60
2022-11-02T13:54:43.960Z,49.50
2022-11-02T13:57:35.249Z,49.40
2022-11-02T14:00:23.520Z,50.50
2022-11-02T14:03:16.847Z,51.50
2022-11-02T14:06:11.626Z,51.60
2022-11-02T14:09:00.491Z,52.70
2022-11-02T14:12:09.847Z,54.70
2022-11-02T14:15:13.779Z,53.10
2022-11-02T14:18:11.950Z,54.00
2022-11-02T14:20:57.559Z,51.30
2022-11-02T14:23:43.099Z,49.70
2022-11-02T14:26:53.534Z,49.50
2022-11-02T14:29:45.098Z,50.00
2022-11-02T14:32:40.906Z,48.70
2022-11-02T14:35:44.073Z,47.40
2022-11-02T14:38:38.753Z,48.80
2022-11-02T14:41:48.521Z,47.90
2022-11-02T14:44:33.715Z,46.90
2022-11-02T14:47:19.887Z,47.60
2022-11-02T14:50:08.232Z,47.30
2022-11-02T14:53:05.976Z,48.30
2022-11-02T14:56:00.982Z,50.00
2022-11-02T14:58:56.523Z,50.80
2022-11-02T15:02:06.556Z,52.20
2022-11-02T15:04:56.474Z,54.10
2022-11-02T15:08:14.292Z,55.60
2022-11-02T15:10:59.889Z,57.40
2022-11-02T15:13:48.704Z,59.00
2022-11-02T15:16:41.434Z,60.20
2022-11-02T15:19:51.881Z,61.70
2022-11-02T15:23:28.503Z,63.20
2022-11-02T15:26:43.253Z,64.50
2022-11-02T15:29:36.565Z,66.00
2022-11-02T15:32:26.322Z,66.90
2022-11-02T15:35:24.170Z,67.30
2022-11-02T15:38:18.576Z,67.50
2022-11-02T15:41:06.343Z,67.70
2022-11-02T15:44:22.672Z,67.70
2022-11-02T15:47:26.429Z,68.10
2022-11-02T15:50:20.836Z,68.50
2022-11-02T15:53:35.407Z,68.60
2022-11-02T15:57:04.212Z,68.70
2022-11-02T16:00:06.876Z,68.80
2022-11-02T16:02:54.131Z,69.20
2022-11-02T16:05:47.739Z,69.50
2022-11-02T16:08:36.115Z,70.00
2022-11-02T16:11:21.649Z,70.50
2022-11-02T16:14:18.146Z,71.10
2022-11-02T16:17:03.909Z,71.90
2022-11-02T16:19:50.018Z,72.80
2022-11-02T16:22:36.769Z,73.50
2022-11-02T16:25:35.129Z,74.20
2022-11-02T16:28:25.711Z,74.70
2022-11-02T16:31:18.967Z,75.20
2022-11-02T16:34:21.712Z,75.60
2022-11-02T16:37:10.687Z,75.90
2022-11-02T16:39:56.094Z,76.00
2022-11-02T16:42:48.306Z,76.00
2022-11-02T16:45:40.265Z,75.90
2022-11-02T16:48:32.972Z,75.90
2022-11-02T16:51:19.277Z,76.00
2022-11-02T16:54:18.117Z,76.10
2022-11-02T16:57:15.852Z,76.00
2022-11-02T17:00:18.306Z,76.00
2022-11-02T17:03:15.242Z,75.90
2022-11-02T17:06:05.488Z,75.90
2022-11-02T17:08:54.032Z,75.90
2022-11-02T17:11:43.373Z,75.80
2022-11-02T17:14:31.814Z,75.90
2022-11-02T17:17:23.920Z,76.00
2022-11-02T17:20:14.858Z,76.00
2022-11-02T17:23:30.886Z,76.00
2022-11-02T17:26:24.867Z,75.90
2022-11-02T17:29:19.512Z,75.90
2022-11-02T17:32:07.382Z,76.10
2022-11-02T17:34:54.500Z,76.20
2022-11-02T17:37:39.745Z,76.20
2022-11-02T17:40:25.390Z,76.20
2022-11-02T17:43:11.313Z,76.40
2022-11-02T17:45:58.395Z,76.40
2022-11-02T17:48:43.968Z,76.50
2022-11-02T17:51:29.428Z,76.60
2022-11-02T17:54:15.052Z,76.70
2022-11-02T17:57:02.164Z,76.90
2022-11-02T17:59:47.700Z,76.90
2022-11-02T18:02:33.473Z,77.00
2022-11-02T18:05:28.512Z,76.90
2022-11-02T18:08:20.938Z,76.80
2022-11-02T18:11:08.719Z,76.60
2022-11-02T18:13:54.009Z,76.50
2022-11-02T18:16:40.196Z,76.50
2022-11-02T18:19:26.140Z,76.50
2022-11-02T18:22:13.112Z,76.30
2022-11-02T18:24:58.607Z,76.40
2022-11-02T18:27:44.941Z,76.40
2022-11-02T18:30:32.267Z,76.30
2022-11-02T18:33:17.630Z,76.10
2022-11-02T18:36:08.537Z,75.90
2022-11-02T18:38:56.478Z,75.80
2022-11-02T18:41:42.503Z,75.70
2022-11-02T18:44:27.650Z,75.60
2022-11-02T18:47:13.387Z,75.60
2022-11-02T18:50:00.239Z,75.60
2022-11-02T18:52:49.107Z,75.70
2022-11-02T18:55:39.559Z,75.90
2022-11-02T18:58:27.854Z,76.10
2022-11-02T19:01:13.876Z,76.20
2022-11-02T19:04:00.466Z,76.40
2022-11-02T19:07:04.868Z,76.50
2022-11-02T19:09:50.351Z,76.70
2022-11-02T19:12:36.284Z,76.90
2022-11-02T19:15:21.577Z,77.10
2022-11-02T19:18:07.955Z,77.10
2022-11-02T19:20:56.653Z,77.30
2022-11-02T19:23:47.187Z,77.30
2022-11-02T19:26:33.880Z,77.40
2022-11-02T19:29:20.006Z,77.40
2022-11-02T19:32:06.164Z,77.50
2022-11-02T19:34:54.248Z,77.60
2022-11-02T19:37:39.675Z,77.50
2022-11-02T19:40:29.314Z,77.50
2022-11-02T19:43:14.767Z,77.50
2022-11-02T19:46:06.349Z,77.70
2022-11-02T19:48:53.028Z,77.80
2022-11-02T19:51:39.129Z,78.00
2022-11-02T19:54:24.665Z,78.10
2022-11-02T19:57:09.987Z,78.00
2022-11-02T19:59:55.619Z,78.00
2022-11-02T20:02:43.634Z,78.10
2022-11-02T20:05:32.891Z,78.20
2022-11-02T20:08:18.687Z,78.30
2022-11-02T20:11:08.873Z,78.30
2022-11-02T20:13:55.885Z,78.30
2022-11-02T20:16:41.616Z,78.40
2022-11-02T20:19:27.350Z,78.60
2022-11-02T20:22:15.886Z,78.70
2022-11-02T20:25:01.498Z,78.60
2022-11-02T20:27:47.014Z,78.60
2022-11-02T20:30:32.723Z,78.70
2022-11-02T20:33:18.121Z,78.70
2022-11-02T20:36:04.507Z,78.90
2022-11-02T20:38:52.695Z,78.90
2022-11-02T20:41:38.278Z,79.00
2022-11-02T20:44:26.504Z,79.10
2022-11-02T20:47:12.318Z,79.10
2022-11-02T20:49:57.548Z,79.30
2022-11-02T20:52:44.986Z,79.30
2022-11-02T20:55:30.763Z,79.30
2022-11-02T20:58:16.255Z,79.40
2022-11-02T21:01:01.568Z,79.50
2022-11-02T21:03:46.886Z,79.50
2022-11-02T21:06:32.418Z,80.50
2022-11-02T21:09:18.761Z,79.90
2022-11-02T21:12:26.182Z,80.10
2022-11-02T21:15:11.430Z,79.90
2022-11-02T21:17:56.949Z,80.10
2022-11-02T21:20:43.137Z,80.20
2022-11-02T21:23:28.519Z,80.30
2022-11-02T21:26:17.180Z,80.70
2022-11-02T21:29:02.778Z,80.80
2022-11-02T21:31:48.840Z,81.00
2022-11-02T21:34:34.388Z,81.00
2022-11-02T21:37:19.765Z,81.30
2022-11-02T21:40:11.779Z,81.20
2022-11-02T21:42:57.125Z,81.50
2022-11-02T21:45:53.534Z,81.60
2022-11-02T21:48:39.338Z,81.90
2022-11-02T21:51:25.105Z,82.10
2022-11-02T21:54:10.721Z,82.20
2022-11-02T21:56:56.354Z,82.40
2022-11-02T21:59:41.682Z,82.60
2022-11-02T22:02:27.095Z,82.60
2022-11-02T22:05:32.698Z,82.70
2022-11-02T22:08:36.703Z,83.60
2022-11-02T22:11:27.059Z,82.90
2022-11-02T22:14:12.778Z,83.00
2022-11-02T22:17:01.514Z,83.20
2022-11-02T22:19:48.130Z,83.20
2022-11-02T22:22:33.587Z,83.20
2022-11-02T22:25:19.026Z,83.30
2022-11-02T22:28:04.854Z,83.50
2022-11-02T22:30:52.961Z,83.50
2022-11-02T22:33:41.551Z,83.60
2022-11-02T22:36:29.218Z,83.60
2022-11-02T22:39:14.659Z,83.80
2022-11-02T22:42:03.088Z,83.80
2022-11-02T22:44:51.312Z,83.90
2022-11-02T22:47:36.861Z,83.80
2022-11-02T22:50:25.114Z,84.00
2022-11-02T22:53:13.313Z,84.00
2022-11-02T22:56:07.836Z,84.10
2022-11-02T22:58:53.486Z,84.20
2022-11-02T23:01:39.639Z,84.50
2022-11-02T23:04:25.230Z,84.50
2022-11-02T23:07:10.950Z,84.40
2022-11-02T23:09:56.271Z,84.50
2022-11-02T23:12:41.872Z,84.60
2022-11-02T23:15:27.309Z,84.90
2022-11-02T23:18:13.175Z,84.70
2022-11-02T23:21:01.548Z,85.00
2022-11-02T23:24:05.487Z,84.90
2022-11-02T23:26:51.278Z,84.90
2022-11-02T23:29:55.336Z,84.90
2022-11-02T23:32:40.679Z,84.70
2022-11-02T23:35:44.909Z,84.60
2022-11-02T23:38:50.984Z,84.70
2022-11-02T23:41:41.604Z,84.50
2022-11-02T23:44:30.983Z,84.40
2022-11-02T23:47:16.771Z,84.50
2022-11-02T23:50:02.153Z,84.50
2022-11-02T23:53:07.236Z,84.50
2022-11-02T23:56:11.191Z,84.50
2022-11-02T23:59:08.587Z,84.40
